createdAt,value
2018-06-08T00:00:54.628Z,79.29
2018-06-08T00:03:23.559Z,78.79
2018-06-08T00:05:54.502Z,79.01
2018-06-08T00:08:23.852Z,78.93
2018-06-08T00:10:53.930Z,78.77
2018-06-08T00:13:25.262Z,78.73
2018-06-08T00:15:57.304Z,78.70
2018-06-08T00:18:29.143Z,78.04
2018-06-08T00:20:58.234Z,79.16
2018-06-08T00:23:28.441Z,79.48
2018-06-08T00:25:57.574Z,79.15
2018-06-08T00:28:26.402Z,78.96
2018-06-08T00:30:56.676Z,78.85
2018-06-08T00:33:26.193Z,79.11
2018-06-08T00:35:57.864Z,78.70
2018-06-08T00:38:26.951Z,78.81
2018-06-08T00:40:56.258Z,79.29
2018-06-08T00:43:29.306Z,79.44
2018-06-08T00:45:59.136Z,79.33
2018-06-08T00:48:28.816Z,79.82
2018-06-08T00:51:00.657Z,79.68
2018-06-08T00:53:29.600Z,79.60
2018-06-08T00:55:59.333Z,79.96
2018-06-08T00:58:29.004Z,80.32
2018-06-08T01:01:00.176Z,80.24
2018-06-08T01:03:31.865Z,80.35
2018-06-08T01:06:00.646Z,80.13
2018-06-08T01:08:31.132Z,80.39
2018-06-08T01:11:04.092Z,80.61
2018-06-08T01:13:34.198Z,79.47
2018-06-08T01:16:04.947Z,78.50
2018-06-08T01:18:36.448Z,78.61
2018-06-08T01:21:06.383Z,79.01
2018-06-08T01:23:37.620Z,78.51
2018-06-08T01:26:07.796Z,79.66
2018-06-08T01:28:36.317Z,80.33
2018-06-08T01:31:06.303Z,79.82
2018-06-08T01:33:35.176Z,79.64
2018-06-08T01:36:03.962Z,79.95
2018-06-08T01:38:37.951Z,80.75
2018-06-08T01:41:07.205Z,80.35
2018-06-08T01:43:39.170Z,80.39
2018-06-08T01:46:08.831Z,80.49
2018-06-08T01:48:38.533Z,80.33
2018-06-08T01:51:07.564Z,80.31
2018-06-08T01:53:43.091Z,79.77
2018-06-08T01:56:11.980Z,79.61
2018-06-08T01:58:40.765Z,78.82
2018-06-08T02:01:09.327Z,78.30
2018-06-08T02:03:39.272Z,78.26
2018-06-08T02:06:15.193Z,79.19
2018-06-08T02:08:43.975Z,79.31
2018-06-08T02:11:12.892Z,79.11
2018-06-08T02:13:41.493Z,78.70
2018-06-08T02:16:10.923Z,79.04
2018-06-08T02:18:40.030Z,79.38
2018-06-08T02:21:10.085Z,79.86
2018-06-08T02:23:38.931Z,79.59
2018-06-08T02:26:08.032Z,78.72
2018-06-08T02:28:36.810Z,78.94
2018-06-08T02:31:05.335Z,78.97
2018-06-08T02:33:33.827Z,79.24
2018-06-08T02:36:02.302Z,79.52
2018-06-08T02:38:31.679Z,79.41
2018-06-08T02:41:00.564Z,80.31
2018-06-08T02:43:29.539Z,80.69
2018-06-08T02:45:58.383Z,80.83
2018-06-08T02:48:27.064Z,81.39
2018-06-08T02:50:56.044Z,81.06
2018-06-08T02:53:25.886Z,81.12
2018-06-08T02:55:54.492Z,81.01
2018-06-08T02:58:23.321Z,80.46
2018-06-08T03:00:52.951Z,79.92
2018-06-08T03:03:21.405Z,79.84
2018-06-08T03:05:50.609Z,80.30
2018-06-08T03:08:20.246Z,80.61
2018-06-08T03:10:48.937Z,80.90
2018-06-08T03:13:25.826Z,81.66
2018-06-08T03:15:54.298Z,81.13
2018-06-08T03:18:22.793Z,81.24
2018-06-08T03:20:52.350Z,81.69
2018-06-08T03:23:21.382Z,81.82
2018-06-08T03:25:50.500Z,82.10
2018-06-08T03:28:18.998Z,82.55
2018-06-08T03:30:47.504Z,82.38
2018-06-08T03:33:16.076Z,82.56
2018-06-08T03:35:44.929Z,82.94
2018-06-08T03:38:15.389Z,82.68
2018-06-08T03:40:45.549Z,82.43
2018-06-08T03:43:15.036Z,81.32
2018-06-08T03:45:44.350Z,81.24
2018-06-08T03:48:15.935Z,81.94
2018-06-08T03:50:47.916Z,81.64
2018-06-08T03:53:16.732Z,81.58
2018-06-08T03:55:45.967Z,81.77
2018-06-08T03:58:14.872Z,81.56
2018-06-08T04:00:44.089Z,81.17
2018-06-08T04:03:14.131Z,81.58
2018-06-08T04:05:43.104Z,81.73
2018-06-08T04:08:11.689Z,81.77
2018-06-08T04:13:15.145Z,81.75
2018-06-08T04:15:44.614Z,82.24
2018-06-08T04:18:13.904Z,82.56
2018-06-08T04:20:43.809Z,83.42
2018-06-08T04:23:12.418Z,82.60
2018-06-08T04:25:41.178Z,82.60
2018-06-08T04:28:11.833Z,81.95
2018-06-08T04:30:52.169Z,81.32
2018-06-08T04:33:21.799Z,81.35
2018-06-08T04:35:59.589Z,81.35
2018-06-08T04:41:03.991Z,81.00
2018-06-08T04:43:32.745Z,81.12
2018-06-08T04:46:01.290Z,81.30
2018-06-08T04:48:29.830Z,80.82
2018-06-08T04:50:58.391Z,80.43
2018-06-08T04:53:26.901Z,80.24
2018-06-08T04:55:55.447Z,80.07
2018-06-08T04:58:25.982Z,79.47
2018-06-08T05:00:54.854Z,78.83
2018-06-08T05:03:23.322Z,79.55
2018-06-08T05:05:51.924Z,79.15
2018-06-08T05:08:21.193Z,79.13
2018-06-08T05:10:49.957Z,79.15
2018-06-08T05:13:18.548Z,79.40
2018-06-08T05:15:47.985Z,78.82
2018-06-08T05:18:17.374Z,79.11
2018-06-08T05:20:46.456Z,78.56
2018-06-08T05:23:15.181Z,78.46
2018-06-08T05:25:43.795Z,78.41
2018-06-08T05:28:12.656Z,78.25
2018-06-08T05:30:41.721Z,77.90
2018-06-08T05:33:10.909Z,78.04
2018-06-08T05:35:39.692Z,78.00
2018-06-08T05:38:08.421Z,77.95
2018-06-08T05:40:37.730Z,77.59
2018-06-08T05:43:06.292Z,78.74
2018-06-08T05:45:34.796Z,77.89
2018-06-08T05:48:04.547Z,77.51
2018-06-08T05:50:33.059Z,77.77
2018-06-08T05:53:01.911Z,78.32
2018-06-08T05:55:31.171Z,79.19
2018-06-08T05:57:59.878Z,79.92
2018-06-08T06:00:29.222Z,79.43
2018-06-08T06:02:57.775Z,78.58
2018-06-08T06:05:26.793Z,78.61
2018-06-08T06:07:55.320Z,78.47
2018-06-08T06:10:24.909Z,79.30
2018-06-08T06:12:53.941Z,77.84
2018-06-08T06:15:23.128Z,77.55
2018-06-08T06:17:52.499Z,77.74
2018-06-08T06:20:22.180Z,77.89
2018-06-08T06:22:51.406Z,77.91
2018-06-08T06:25:20.454Z,77.49
2018-06-08T06:27:49.060Z,78.02
2018-06-08T06:30:18.188Z,78.23
2018-06-08T06:32:47.221Z,78.33
2018-06-08T06:35:18.582Z,79.23
2018-06-08T06:37:53.124Z,78.21
2018-06-08T06:40:22.043Z,78.30
2018-06-08T06:42:50.878Z,77.73
2018-06-08T06:45:19.938Z,77.79
2018-06-08T06:47:49.721Z,77.08
2018-06-08T06:50:18.262Z,77.40
2018-06-08T06:52:49.484Z,76.75
2018-06-08T06:55:19.815Z,75.47
2018-06-08T06:57:48.678Z,74.90
2018-06-08T07:00:17.549Z,74.98
2018-06-08T07:02:46.921Z,74.21
2018-06-08T07:05:15.902Z,72.64
2018-06-08T07:07:45.131Z,73.89
2018-06-08T07:10:13.577Z,74.44
2018-06-08T07:12:42.140Z,73.29
2018-06-08T07:15:11.676Z,71.53
2018-06-08T07:17:40.185Z,72.17
2018-06-08T07:20:09.488Z,70.45
2018-06-08T07:22:38.081Z,71.46
2018-06-08T07:25:06.744Z,70.02
2018-06-08T07:27:35.868Z,70.43
2018-06-08T07:30:04.359Z,71.43
2018-06-08T07:32:33.249Z,69.86
2018-06-08T07:35:01.803Z,68.11
2018-06-08T07:37:30.426Z,69.22
2018-06-08T07:39:59.246Z,69.86
2018-06-08T07:42:27.726Z,69.97
2018-06-08T07:44:56.583Z,70.35
2018-06-08T07:47:25.328Z,69.17
2018-06-08T07:49:54.513Z,69.82
2018-06-08T07:52:23.730Z,69.87
2018-06-08T07:54:52.331Z,70.12
2018-06-08T07:57:21.301Z,68.94
2018-06-08T07:59:49.846Z,68.46
2018-06-08T08:02:18.316Z,69.07
2018-06-08T08:04:46.757Z,68.04
2018-06-08T08:07:18.395Z,68.71
2018-06-08T08:09:47.155Z,67.58
2018-06-08T08:12:16.909Z,68.25
2018-06-08T08:14:45.962Z,67.01
2018-06-08T08:17:14.482Z,65.81
2018-06-08T08:19:43.457Z,65.09
2018-06-08T08:22:12.313Z,65.09
2018-06-08T08:24:40.804Z,64.99
2018-06-08T08:27:09.332Z,64.23
2018-06-08T08:29:38.641Z,64.68
2018-06-08T08:32:07.188Z,65.31
2018-06-08T08:34:35.749Z,64.69
2018-06-08T08:37:04.831Z,64.77
2018-06-08T08:39:33.437Z,64.79
2018-06-08T08:42:02.298Z,65.14
2018-06-08T08:44:30.734Z,63.92
2018-06-08T08:46:59.199Z,64.82
2018-06-08T08:49:27.693Z,63.28
2018-06-08T08:51:56.298Z,62.53
2018-06-08T08:54:24.884Z,63.40
2018-06-08T08:56:53.435Z,62.94
2018-06-08T08:59:21.945Z,63.04
2018-06-08T09:01:50.552Z,62.06
2018-06-08T09:04:19.163Z,62.08
2018-06-08T09:06:47.798Z,61.79
2018-06-08T09:09:16.314Z,61.00
2018-06-08T09:11:44.815Z,61.33
2018-06-08T09:14:13.336Z,60.45
2018-06-08T09:16:41.955Z,60.56
2018-06-08T09:19:10.544Z,61.11
2018-06-08T09:21:39.077Z,60.09
2018-06-08T09:24:07.646Z,61.12
2018-06-08T09:26:36.467Z,61.44
2018-06-08T09:29:05.549Z,60.36
2018-06-08T09:31:34.115Z,58.95
2018-06-08T09:34:02.629Z,59.86
2018-06-08T09:36:31.182Z,59.27
2018-06-08T09:38:59.682Z,60.36
2018-06-08T09:41:28.111Z,61.69
2018-06-08T09:43:56.677Z,59.42
2018-06-08T09:46:25.295Z,59.15
2018-06-08T09:48:53.675Z,57.92
2018-06-08T09:51:22.265Z,59.92
2018-06-08T09:53:51.432Z,60.47
2018-06-08T09:56:20.051Z,60.02
2018-06-08T09:58:49.184Z,58.01
2018-06-08T10:01:17.654Z,58.05
2018-06-08T10:03:46.682Z,58.48
2018-06-08T10:06:15.840Z,56.95
2018-06-08T10:08:44.281Z,56.14
2018-06-08T10:11:12.905Z,57.10
2018-06-08T10:13:42.009Z,55.89
2018-06-08T10:16:10.639Z,54.14
2018-06-08T10:18:39.123Z,56.58
2018-06-08T10:21:07.703Z,55.66
2018-06-08T10:23:36.274Z,54.10
2018-06-08T10:26:04.815Z,53.59
2018-06-08T10:28:33.308Z,54.98
2018-06-08T10:31:01.978Z,53.35
2018-06-08T10:33:30.829Z,52.70
2018-06-08T10:35:59.283Z,53.19
2018-06-08T10:38:27.773Z,51.68
2018-06-08T10:40:56.318Z,50.94
2018-06-08T10:43:24.796Z,54.23
2018-06-08T10:45:53.321Z,52.99
2018-06-08T10:48:21.735Z,53.20
2018-06-08T10:50:50.287Z,53.43
2018-06-08T10:53:18.694Z,52.56
2018-06-08T10:55:47.162Z,54.23
2018-06-08T10:58:16.259Z,52.12
2018-06-08T11:00:44.741Z,52.10
2018-06-08T11:03:13.935Z,51.10
2018-06-08T11:05:43.126Z,51.49
2018-06-08T11:08:11.604Z,51.51
2018-06-08T11:10:40.045Z,51.72
2018-06-08T11:13:08.584Z,49.63
2018-06-08T11:15:36.989Z,52.04
2018-06-08T11:18:05.634Z,52.49
2018-06-08T11:20:34.235Z,50.99
2018-06-08T11:23:02.749Z,51.37
2018-06-08T11:25:31.335Z,50.86
2018-06-08T11:28:00.439Z,50.72
2018-06-08T11:30:28.870Z,49.17
2018-06-08T11:32:57.483Z,50.15
2018-06-08T11:35:26.621Z,50.72
2018-06-08T11:37:55.175Z,49.80
2018-06-08T11:40:23.631Z,49.42
2018-06-08T11:42:52.778Z,49.75
2018-06-08T11:45:21.397Z,49.97
2018-06-08T11:47:50.543Z,48.82
2018-06-08T11:50:19.363Z,49.17
2018-06-08T11:52:48.353Z,48.86
2018-06-08T11:55:17.000Z,49.34
2018-06-08T11:57:46.003Z,51.56
2018-06-08T12:00:17.369Z,50.36
2018-06-08T12:02:46.309Z,50.91
2018-06-08T12:05:14.938Z,50.24
2018-06-08T12:07:43.632Z,49.98
2018-06-08T12:10:12.755Z,50.19
2018-06-08T12:12:41.214Z,48.63
2018-06-08T12:15:10.332Z,49.19
2018-06-08T12:17:38.950Z,49.27
2018-06-08T12:20:07.811Z,50.33
2018-06-08T12:22:36.314Z,48.41
2018-06-08T12:25:05.001Z,49.01
2018-06-08T12:27:33.567Z,46.41
2018-06-08T12:30:03.232Z,47.39
2018-06-08T12:32:31.794Z,47.72
2018-06-08T12:35:00.306Z,47.70
2018-06-08T12:37:29.807Z,48.47
2018-06-08T12:39:59.173Z,47.88
2018-06-08T12:42:27.947Z,47.31
2018-06-08T12:44:57.028Z,47.70
2018-06-08T12:47:25.784Z,46.69
2018-06-08T12:49:54.402Z,44.02
2018-06-08T12:52:22.936Z,42.36
2018-06-08T12:54:51.620Z,41.09
2018-06-08T12:57:21.707Z,41.90
2018-06-08T12:59:56.765Z,41.18
2018-06-08T13:02:26.578Z,41.61
2018-06-08T13:04:57.268Z,41.79
2018-06-08T13:07:28.217Z,40.73
2018-06-08T13:09:56.857Z,38.76
2018-06-08T13:12:25.599Z,39.39
2018-06-08T13:14:54.392Z,40.95
2018-06-08T13:17:23.524Z,41.79
2018-06-08T13:19:51.947Z,40.42
2018-06-08T13:22:20.619Z,41.00
2018-06-08T13:24:49.172Z,40.14
2018-06-08T13:27:17.656Z,37.73
2018-06-08T13:29:46.268Z,36.83
2018-06-08T13:32:14.822Z,36.37
2018-06-08T13:34:44.167Z,37.02
2018-06-08T13:37:13.038Z,35.95
2018-06-08T13:39:41.586Z,34.78
2018-06-08T13:42:10.113Z,34.57
2018-06-08T13:44:38.600Z,33.43
2018-06-08T13:47:07.161Z,34.17
2018-06-08T13:49:35.758Z,33.32
2018-06-08T13:52:04.855Z,32.25
2018-06-08T13:54:34.008Z,34.40
2018-06-08T13:57:03.093Z,34.88
2018-06-08T13:59:31.734Z,34.95
2018-06-08T14:02:00.219Z,35.05
2018-06-08T14:04:28.763Z,34.76
2018-06-08T14:06:57.812Z,35.89
2018-06-08T14:09:26.284Z,36.90
2018-06-08T14:11:55.147Z,38.84
2018-06-08T14:14:23.661Z,38.34
2018-06-08T14:16:52.867Z,38.03
2018-06-08T14:19:21.392Z,38.69
2018-06-08T14:21:50.026Z,38.42
2018-06-08T14:24:18.538Z,37.23
2018-06-08T14:26:47.492Z,37.91
2018-06-08T14:29:16.001Z,35.91
2018-06-08T14:31:44.501Z,36.06
2018-06-08T14:34:12.944Z,38.30
2018-06-08T14:36:41.452Z,39.59
2018-06-08T14:39:09.974Z,38.12
2018-06-08T14:41:38.525Z,38.12
2018-06-08T14:44:07.083Z,38.58
2018-06-08T14:46:35.731Z,35.53
2018-06-08T14:49:04.317Z,37.28
2018-06-08T14:51:33.543Z,38.46
2018-06-08T14:54:02.484Z,38.21
2018-06-08T14:56:31.942Z,39.42
2018-06-08T14:59:00.667Z,39.41
2018-06-08T15:01:29.131Z,38.85
2018-06-08T15:03:57.589Z,39.98
2018-06-08T15:06:26.169Z,43.48
2018-06-08T15:08:55.275Z,48.49
2018-06-08T15:11:24.528Z,50.57
2018-06-08T15:13:53.145Z,54.34
2018-06-08T15:16:22.415Z,50.62
2018-06-08T15:18:53.272Z,53.77
2018-06-08T15:21:22.578Z,53.14
2018-06-08T15:23:56.135Z,55.77
2018-06-08T15:26:25.788Z,55.61
2018-06-08T15:28:55.629Z,56.30
2018-06-08T15:31:26.032Z,57.20
2018-06-08T15:33:55.892Z,57.77
2018-06-08T15:36:25.628Z,60.67
2018-06-08T15:38:57.100Z,61.01
2018-06-08T15:41:25.675Z,57.69
2018-06-08T15:43:58.585Z,58.10
2018-06-08T15:46:27.355Z,56.03
2018-06-08T15:48:56.022Z,55.68
2018-06-08T15:51:24.561Z,55.18
2018-06-08T15:53:53.231Z,54.13
2018-06-08T15:56:21.769Z,56.61
2018-06-08T15:58:50.444Z,55.25
2018-06-08T16:01:18.990Z,58.17
2018-06-08T16:03:48.787Z,57.32
2018-06-08T16:06:17.322Z,58.27
2018-06-08T16:08:45.974Z,58.02
2018-06-08T16:11:14.522Z,56.49
2018-06-08T16:13:43.072Z,58.46
2018-06-08T16:16:11.601Z,60.57
2018-06-08T16:18:40.123Z,60.07
2018-06-08T16:21:08.692Z,61.68
2018-06-08T16:23:40.769Z,61.94
2018-06-08T16:26:09.820Z,61.28
2018-06-08T16:28:38.498Z,59.23
2018-06-08T16:31:07.459Z,59.69
2018-06-08T16:33:36.921Z,63.13
2018-06-08T16:36:07.601Z,63.40
2018-06-08T16:38:37.718Z,64.35
2018-06-08T16:41:08.174Z,61.92
2018-06-08T16:43:36.756Z,62.80
2018-06-08T16:46:05.474Z,64.64
2018-06-08T16:48:34.655Z,64.66
2018-06-08T16:51:03.537Z,64.58
2018-06-08T16:53:32.348Z,64.26
2018-06-08T16:56:01.327Z,64.78
2018-06-08T16:58:29.841Z,65.13
2018-06-08T17:00:58.961Z,64.46
2018-06-08T17:03:28.026Z,64.35
2018-06-08T17:05:56.836Z,64.71
2018-06-08T17:08:25.906Z,64.75
2018-06-08T17:10:55.323Z,64.87
2018-06-08T17:13:24.216Z,64.13
2018-06-08T17:15:52.786Z,66.36
2018-06-08T17:18:21.395Z,70.08
2018-06-08T17:20:50.021Z,71.37
2018-06-08T17:23:18.385Z,71.32
2018-06-08T17:25:46.940Z,69.26
2018-06-08T17:28:16.499Z,66.37
2018-06-08T17:30:46.137Z,65.50
2018-06-08T17:33:15.579Z,64.71
2018-06-08T17:35:50.755Z,64.32
2018-06-08T17:38:19.353Z,66.04
2018-06-08T17:40:48.002Z,67.28
2018-06-08T17:43:16.536Z,69.03
2018-06-08T17:45:45.062Z,69.50
2018-06-08T17:48:13.629Z,70.38
2018-06-08T17:50:43.144Z,69.52
2018-06-08T17:53:11.645Z,69.81
2018-06-08T17:55:40.231Z,69.33
2018-06-08T17:58:08.904Z,69.37
2018-06-08T18:00:37.492Z,70.17
2018-06-08T18:03:06.285Z,69.88
2018-06-08T18:05:34.937Z,70.05
2018-06-08T18:08:04.224Z,71.34
2018-06-08T18:10:32.726Z,71.68
2018-06-08T18:13:01.705Z,72.14
2018-06-08T18:15:30.326Z,72.34
2018-06-08T18:17:59.026Z,71.45
2018-06-08T18:20:27.753Z,71.24
2018-06-08T18:22:57.701Z,71.07
2018-06-08T18:25:26.357Z,70.73
2018-06-08T18:27:55.803Z,71.03
2018-06-08T18:30:24.397Z,71.55
2018-06-08T18:32:54.045Z,71.81
2018-06-08T18:35:22.663Z,71.16
2018-06-08T18:37:51.215Z,71.88
2018-06-08T18:40:19.834Z,69.45
2018-06-08T18:42:48.437Z,70.10
2018-06-08T18:45:17.021Z,71.03
2018-06-08T18:47:45.601Z,72.23
2018-06-08T18:50:14.228Z,72.56
2018-06-08T18:52:43.442Z,72.60
2018-06-08T18:55:11.977Z,73.09
2018-06-08T18:57:40.578Z,73.21
2018-06-08T19:00:10.660Z,75.80
2018-06-08T19:02:39.159Z,74.45
2018-06-08T19:05:07.982Z,73.92
2018-06-08T19:07:36.475Z,76.60
2018-06-08T19:10:06.641Z,75.98
2018-06-08T19:12:36.818Z,75.60
2018-06-08T19:15:07.082Z,74.38
2018-06-08T19:17:35.927Z,74.18
2018-06-08T19:20:06.466Z,73.31
2018-06-08T19:22:35.084Z,72.34
2018-06-08T19:25:04.595Z,72.37
2018-06-08T19:27:35.039Z,73.47
2018-06-08T19:30:04.055Z,73.90
2018-06-08T19:32:33.633Z,75.21
2018-06-08T19:35:02.105Z,74.40
2018-06-08T19:37:30.771Z,73.79
2018-06-08T19:39:59.267Z,73.89
2018-06-08T19:42:28.657Z,74.03
2018-06-08T19:44:58.801Z,74.45
2018-06-08T19:47:28.350Z,74.32
2018-06-08T19:49:57.100Z,73.44
2018-06-08T19:52:26.000Z,74.69
2018-06-08T19:54:55.105Z,75.86
2018-06-08T19:57:24.402Z,74.76
2018-06-08T19:59:54.020Z,74.81
2018-06-08T20:02:22.906Z,75.09
2018-06-08T20:04:52.649Z,74.98
2018-06-08T20:07:21.446Z,73.85
2018-06-08T20:09:50.419Z,74.13
2018-06-08T20:12:19.753Z,73.84
2018-06-08T20:14:49.762Z,74.47
2018-06-08T20:17:19.422Z,74.18
2018-06-08T20:19:48.033Z,75.26
2018-06-08T20:22:16.590Z,75.37
2018-06-08T20:24:47.509Z,74.65
2018-06-08T20:27:20.602Z,74.75
2018-06-08T20:29:49.594Z,74.55
2018-06-08T20:32:18.922Z,74.01
2018-06-08T20:34:47.965Z,73.50
2018-06-08T20:37:16.749Z,74.47
2018-06-08T20:39:45.355Z,74.71
2018-06-08T20:42:13.965Z,75.22
2018-06-08T20:44:42.583Z,75.20
2018-06-08T20:47:11.335Z,73.97
2018-06-08T20:49:39.784Z,74.73
2018-06-08T20:52:08.344Z,75.30
2018-06-08T20:54:36.856Z,74.87
2018-06-08T20:57:26.385Z,75.12
2018-06-08T20:59:55.010Z,73.57
2018-06-08T21:02:23.749Z,75.07
2018-06-08T21:04:52.216Z,73.09
2018-06-08T21:07:21.215Z,73.13
2018-06-08T21:09:49.833Z,73.50
2018-06-08T21:12:18.361Z,72.33
2018-06-08T21:14:46.895Z,73.61
2018-06-08T21:17:15.590Z,72.21
2018-06-08T21:19:44.044Z,74.23
2018-06-08T21:22:12.567Z,74.81
2018-06-08T21:24:41.363Z,74.06
2018-06-08T21:27:09.846Z,74.24
2018-06-08T21:29:38.427Z,73.91
2018-06-08T21:32:07.056Z,74.67
2018-06-08T21:34:35.592Z,75.00
2018-06-08T21:37:04.130Z,74.38
2018-06-08T21:39:32.637Z,73.71
2018-06-08T21:42:01.210Z,74.56
2018-06-08T21:44:29.721Z,74.50
2018-06-08T21:46:58.237Z,75.33
2018-06-08T21:49:26.696Z,76.16
2018-06-08T21:51:55.181Z,75.17
2018-06-08T21:54:23.944Z,75.82
2018-06-08T21:56:52.452Z,75.34
2018-06-08T21:59:21.045Z,75.06
2018-06-08T22:01:49.568Z,75.19
2018-06-08T22:04:18.083Z,75.77
2018-06-08T22:06:46.649Z,76.11
2018-06-08T22:09:18.701Z,75.51
2018-06-08T22:11:47.437Z,75.40
2018-06-08T22:14:16.850Z,75.32
2018-06-08T22:16:45.308Z,76.07
2018-06-08T22:19:13.799Z,75.65
2018-06-08T22:21:42.336Z,76.37
2018-06-08T22:24:10.844Z,75.87
2018-06-08T22:26:39.399Z,76.10
2018-06-08T22:29:07.873Z,76.96
2018-06-08T22:31:36.317Z,76.56
2018-06-08T22:34:04.880Z,76.61
2018-06-08T22:36:33.360Z,76.62
2018-06-08T22:39:02.123Z,76.43
2018-06-08T22:41:30.539Z,76.98
2018-06-08T22:43:58.981Z,77.84
2018-06-08T22:46:27.481Z,77.95
2018-06-08T22:48:55.970Z,77.21
2018-06-08T22:51:24.508Z,78.36
2018-06-08T22:53:53.033Z,78.27
2018-06-08T22:56:22.119Z,78.57
2018-06-08T22:58:50.571Z,78.10
2018-06-08T23:01:19.505Z,78.30
2018-06-08T23:03:47.964Z,78.23
2018-06-08T23:06:16.395Z,78.12
2018-06-08T23:08:44.869Z,77.91
2018-06-08T23:11:13.379Z,78.33
2018-06-08T23:13:41.824Z,78.99
2018-06-08T23:16:10.285Z,79.38
2018-06-08T23:18:38.745Z,79.05
2018-06-08T23:21:07.536Z,79.30
2018-06-08T23:23:36.032Z,80.44
2018-06-08T23:26:04.442Z,80.69
2018-06-08T23:28:32.908Z,80.46
2018-06-08T23:31:01.405Z,80.81
2018-06-08T23:33:29.861Z,80.18
2018-06-08T23:35:58.343Z,80.03
2018-06-08T23:38:26.812Z,80.37
2018-06-08T23:40:55.353Z,79.92
2018-06-08T23:43:23.920Z,80.59
2018-06-08T23:45:52.452Z,80.31
2018-06-08T23:48:20.997Z,80.52
2018-06-08T23:50:49.463Z,80.40
2018-06-08T23:53:17.968Z,80.48
2018-06-08T23:55:46.409Z,79.83
2018-06-08T23:58:14.882Z,79.87
